sensor_id;sensor_type;location;lat;lon;timestamp;P1;durP1;ratioP1;P2;durP2;ratioP2
58567;SDS011;44354;46.192;-1.076;2023-04-24T00:02:15;1.48;;;1.48;;
58567;SDS011;44354;46.192;-1.076;2023-04-24T00:04:41;1.57;;;1.57;;
58567;SDS011;44354;46.192;-1.076;2023-04-24T00:07:09;1.63;;;1.63;;
58567;SDS011;44354;46.192;-1.076;2023-04-24T00:09:36;2.03;;;1.92;;
58567;SDS011;44354;46.192;-1.076;2023-04-24T00:12:02;1.20;;;1.20;;
58567;SDS011;44354;46.192;-1.076;2023-04-24T00:14:31;1.60;;;1.60;;
58567;SDS011;44354;46.192;-1.076;2023-04-24T00:16:56;1.35;;;1.35;;
58567;SDS011;44354;46.192;-1.076;2023-04-24T00:19:22;1.40;;;1.40;;
58567;SDS011;44354;46.192;-1.076;2023-04-24T00:21:48;0.93;;;0.93;;
58567;SDS011;44354;46.192;-1.076;2023-04-24T00:24:17;0.80;;;0.80;;
58567;SDS011;44354;46.192;-1.076;2023-04-24T00:26:43;0.80;;;0.80;;
58567;SDS011;44354;46.192;-1.076;2023-04-24T00:29:09;0.55;;;0.55;;
58567;SDS011;44354;46.192;-1.076;2023-04-24T00:31:35;0.60;;;0.60;;
58567;SDS011;44354;46.192;-1.076;2023-04-24T00:34:01;0.63;;;0.63;;
58567;SDS011;44354;46.192;-1.076;2023-04-24T00:36:27;0.68;;;0.68;;
58567;SDS011;44354;46.192;-1.076;2023-04-24T00:38:53;0.50;;;0.50;;
58567;SDS011;44354;46.192;-1.076;2023-04-24T00:41:20;0.47;;;0.47;;
58567;SDS011;44354;46.192;-1.076;2023-04-24T00:43:46;0.50;;;0.50;;
58567;SDS011;44354;46.192;-1.076;2023-04-24T00:46:12;0.60;;;0.60;;
58567;SDS011;44354;46.192;-1.076;2023-04-24T00:48:39;0.95;;;0.95;;
58567;SDS011;44354;46.192;-1.076;2023-04-24T00:51:05;1.25;;;1.25;;
58567;SDS011;44354;46.192;-1.076;2023-04-24T00:53:31;1.30;;;1.30;;
58567;SDS011;44354;46.192;-1.076;2023-04-24T00:55:57;0.95;;;0.95;;
58567;SDS011;44354;46.192;-1.076;2023-04-24T00:58:23;1.10;;;1.10;;
58567;SDS011;44354;46.192;-1.076;2023-04-24T01:00:50;1.42;;;1.42;;
58567;SDS011;44354;46.192;-1.076;2023-04-24T01:03:19;1.60;;;1.60;;
58567;SDS011;44354;46.192;-1.076;2023-04-24T01:05:46;1.70;;;1.70;;
58567;SDS011;44354;46.192;-1.076;2023-04-24T01:08:13;1.70;;;1.70;;
58567;SDS011;44354;46.192;-1.076;2023-04-24T01:10:40;2.03;;;1.92;;
58567;SDS011;44354;46.192;-1.076;2023-04-24T01:13:09;2.08;;;1.98;;
58567;SDS011;44354;46.192;-1.076;2023-04-24T01:15:35;1.70;;;1.70;;
58567;SDS011;44354;46.192;-1.076;2023-04-24T01:18:02;2.23;;;2.13;;
58567;SDS011;44354;46.192;-1.076;2023-04-24T01:20:28;1.50;;;1.50;;
58567;SDS011;44354;46.192;-1.076;2023-04-24T01:22:55;1.50;;;1.50;;
58567;SDS011;44354;46.192;-1.076;2023-04-24T01:25:21;2.58;;;2.47;;
58567;SDS011;44354;46.192;-1.076;2023-04-24T01:27:47;1.52;;;1.52;;
58567;SDS011;44354;46.192;-1.076;2023-04-24T01:30:13;2.37;;;2.27;;
58567;SDS011;44354;46.192;-1.076;2023-04-24T01:32:40;2.28;;;2.17;;
58567;SDS011;44354;46.192;-1.076;2023-04-24T01:35:09;2.53;;;2.42;;
58567;SDS011;44354;46.192;-1.076;2023-04-24T01:37:35;3.40;;;3.30;;
58567;SDS011;44354;46.192;-1.076;2023-04-24T01:40:02;3.60;;;3.50;;
58567;SDS011;44354;46.192;-1.076;2023-04-24T01:42:29;3.40;;;3.30;;
58567;SDS011;44354;46.192;-1.076;2023-04-24T01:44:55;3.40;;;3.30;;
58567;SDS011;44354;46.192;-1.076;2023-04-24T01:47:22;3.03;;;2.92;;
58567;SDS011;44354;46.192;-1.076;2023-04-24T01:49:49;3.38;;;3.28;;
58567;SDS011;44354;46.192;-1.076;2023-04-24T01:52:15;3.55;;;3.45;;
58567;SDS011;44354;46.192;-1.076;2023-04-24T01:54:42;4.22;;;4.03;;
58567;SDS011;44354;46.192;-1.076;2023-04-24T01:57:08;3.50;;;3.40;;
58567;SDS011;44354;46.192;-1.076;2023-04-24T01:59:34;3.75;;;3.55;;
58567;SDS011;44354;46.192;-1.076;2023-04-24T02:02:01;3.80;;;3.60;;
58567;SDS011;44354;46.192;-1.076;2023-04-24T02:04:28;4.00;;;3.80;;
58567;SDS011;44354;46.192;-1.076;2023-04-24T02:06:53;3.85;;;3.65;;
58567;SDS011;44354;46.192;-1.076;2023-04-24T02:09:19;3.30;;;3.20;;
58567;SDS011;44354;46.192;-1.076;2023-04-24T02:11:45;3.50;;;3.40;;
58567;SDS011;44354;46.192;-1.076;2023-04-24T02:14:11;3.30;;;3.20;;
58567;SDS011;44354;46.192;-1.076;2023-04-24T02:16:37;4.17;;;3.97;;
58567;SDS011;44354;46.192;-1.076;2023-04-24T02:19:02;3.53;;;3.42;;
58567;SDS011;44354;46.192;-1.076;2023-04-24T02:21:28;3.30;;;3.20;;
58567;SDS011;44354;46.192;-1.076;2023-04-24T02:23:55;3.20;;;3.10;;
58567;SDS011;44354;46.192;-1.076;2023-04-24T02:26:21;3.57;;;3.47;;
58567;SDS011;44354;46.192;-1.076;2023-04-24T02:28:47;3.90;;;3.70;;
58567;SDS011;44354;46.192;-1.076;2023-04-24T02:31:12;3.63;;;3.50;;
58567;SDS011;44354;46.192;-1.076;2023-04-24T02:33:38;3.90;;;3.70;;
58567;SDS011;44354;46.192;-1.076;2023-04-24T02:36:04;3.35;;;3.25;;
58567;SDS011;44354;46.192;-1.076;2023-04-24T02:38:29;3.92;;;3.72;;
58567;SDS011;44354;46.192;-1.076;2023-04-24T02:40:55;3.43;;;3.33;;
58567;SDS011;44354;46.192;-1.076;2023-04-24T02:43:21;3.50;;;3.40;;
58567;SDS011;44354;46.192;-1.076;2023-04-24T02:45:47;3.30;;;3.20;;
58567;SDS011;44354;46.192;-1.076;2023-04-24T02:48:13;4.43;;;4.22;;
58567;SDS011;44354;46.192;-1.076;2023-04-24T02:50:38;4.00;;;3.80;;
58567;SDS011;44354;46.192;-1.076;2023-04-24T02:53:04;4.13;;;3.93;;
58567;SDS011;44354;46.192;-1.076;2023-04-24T02:55:30;4.10;;;3.90;;
58567;SDS011;44354;46.192;-1.076;2023-04-24T02:57:55;5.05;;;4.85;;
58567;SDS011;44354;46.192;-1.076;2023-04-24T03:00:21;4.20;;;4.00;;
58567;SDS011;44354;46.192;-1.076;2023-04-24T03:02:47;3.88;;;3.67;;
58567;SDS011;44354;46.192;-1.076;2023-04-24T03:05:12;3.95;;;3.75;;
58567;SDS011;44354;46.192;-1.076;2023-04-24T03:07:38;4.00;;;3.80;;
58567;SDS011;44354;46.192;-1.076;2023-04-24T03:10:04;3.87;;;3.67;;
58567;SDS011;44354;46.192;-1.076;2023-04-24T03:12:31;3.30;;;3.20;;
58567;SDS011;44354;46.192;-1.076;2023-04-24T03:14:56;4.23;;;4.03;;
58567;SDS011;44354;46.192;-1.076;2023-04-24T03:17:22;4.07;;;3.88;;
58567;SDS011;44354;46.192;-1.076;2023-04-24T03:19:48;4.05;;;3.85;;
58567;SDS011;44354;46.192;-1.076;2023-04-24T03:22:13;3.90;;;3.70;;
58567;SDS011;44354;46.192;-1.076;2023-04-24T03:24:39;3.00;;;2.90;;
58567;SDS011;44354;46.192;-1.076;2023-04-24T03:27:05;2.72;;;2.63;;
58567;SDS011;44354;46.192;-1.076;2023-04-24T03:29:31;3.00;;;2.90;;
58567;SDS011;44354;46.192;-1.076;2023-04-24T03:31:56;3.00;;;2.90;;
58567;SDS011;44354;46.192;-1.076;2023-04-24T03:34:22;2.60;;;2.50;;
58567;SDS011;44354;46.192;-1.076;2023-04-24T03:36:47;2.60;;;2.50;;
58567;SDS011;44354;46.192;-1.076;2023-04-24T03:39:13;2.40;;;2.30;;
58567;SDS011;44354;46.192;-1.076;2023-04-24T03:41:39;2.40;;;2.30;;
58567;SDS011;44354;46.192;-1.076;2023-04-24T03:44:05;2.50;;;2.40;;
58567;SDS011;44354;46.192;-1.076;2023-04-24T03:46:30;2.30;;;2.20;;
58567;SDS011;44354;46.192;-1.076;2023-04-24T03:48:56;1.70;;;1.70;;
58567;SDS011;44354;46.192;-1.076;2023-04-24T03:51:22;2.35;;;2.25;;
58567;SDS011;44354;46.192;-1.076;2023-04-24T03:53:48;2.50;;;2.40;;
58567;SDS011;44354;46.192;-1.076;2023-04-24T03:56:14;2.08;;;1.98;;
58567;SDS011;44354;46.192;-1.076;2023-04-24T03:58:39;1.48;;;1.48;;
58567;SDS011;44354;46.192;-1.076;2023-04-24T04:01:05;2.08;;;1.98;;
58567;SDS011;44354;46.192;-1.076;2023-04-24T04:03:31;1.90;;;1.80;;
58567;SDS011;44354;46.192;-1.076;2023-04-24T04:05:57;1.50;;;1.50;;
58567;SDS011;44354;46.192;-1.076;2023-04-24T04:08:22;2.20;;;2.10;;
58567;SDS011;44354;46.192;-1.076;2023-04-24T04:10:48;3.45;;;3.35;;
58567;SDS011;44354;46.192;-1.076;2023-04-24T04:13:14;6.03;;;5.73;;
58567;SDS011;44354;46.192;-1.076;2023-04-24T04:15:40;4.15;;;3.95;;
58567;SDS011;44354;46.192;-1.076;2023-04-24T04:18:06;3.35;;;3.25;;
58567;SDS011;44354;46.192;-1.076;2023-04-24T04:20:31;3.50;;;3.40;;
58567;SDS011;44354;46.192;-1.076;2023-04-24T04:22:57;2.45;;;2.35;;
58567;SDS011;44354;46.192;-1.076;2023-04-24T04:25:23;2.13;;;2.03;;
58567;SDS011;44354;46.192;-1.076;2023-04-24T04:27:48;2.40;;;2.30;;
58567;SDS011;44354;46.192;-1.076;2023-04-24T04:30:16;2.80;;;2.70;;
58567;SDS011;44354;46.192;-1.076;2023-04-24T04:32:41;2.40;;;2.30;;
58567;SDS011;44354;46.192;-1.076;2023-04-24T04:35:07;2.00;;;1.90;;
58567;SDS011;44354;46.192;-1.076;2023-04-24T04:37:34;3.35;;;3.25;;
58567;SDS011;44354;46.192;-1.076;2023-04-24T04:40:00;3.17;;;3.08;;
58567;SDS011;44354;46.192;-1.076;2023-04-24T04:42:26;2.65;;;2.55;;
58567;SDS011;44354;46.192;-1.076;2023-04-24T04:44:53;1.98;;;1.88;;
58567;SDS011;44354;46.192;-1.076;2023-04-24T04:47:20;2.13;;;2.03;;
58567;SDS011;44354;46.192;-1.076;2023-04-24T04:49:48;2.45;;;2.35;;
58567;SDS011;44354;46.192;-1.076;2023-04-24T04:52:14;1.48;;;1.48;;
58567;SDS011;44354;46.192;-1.076;2023-04-24T04:54:39;1.50;;;1.50;;
58567;SDS011;44354;46.192;-1.076;2023-04-24T04:57:05;2.40;;;2.30;;
58567;SDS011;44354;46.192;-1.076;2023-04-24T04:59:31;2.38;;;2.28;;
58567;SDS011;44354;46.192;-1.076;2023-04-24T05:01:57;1.60;;;1.60;;
58567;SDS011;44354;46.192;-1.076;2023-04-24T05:04:22;1.02;;;1.02;;
58567;SDS011;44354;46.192;-1.076;2023-04-24T05:06:48;1.60;;;1.60;;
58567;SDS011;44354;46.192;-1.076;2023-04-24T05:09:16;2.05;;;1.95;;
58567;SDS011;44354;46.192;-1.076;2023-04-24T05:11:41;2.13;;;2.03;;
58567;SDS011;44354;46.192;-1.076;2023-04-24T05:14:07;2.07;;;1.97;;
58567;SDS011;44354;46.192;-1.076;2023-04-24T05:16:33;1.70;;;1.70;;
58567;SDS011;44354;46.192;-1.076;2023-04-24T05:18:58;1.50;;;1.50;;
58567;SDS011;44354;46.192;-1.076;2023-04-24T05:21:24;1.30;;;1.30;;
58567;SDS011;44354;46.192;-1.076;2023-04-24T05:23:50;1.30;;;1.30;;
58567;SDS011;44354;46.192;-1.076;2023-04-24T05:26:15;1.50;;;1.50;;
58567;SDS011;44354;46.192;-1.076;2023-04-24T05:28:42;2.00;;;1.90;;
58567;SDS011;44354;46.192;-1.076;2023-04-24T05:31:08;1.30;;;1.30;;
58567;SDS011;44354;46.192;-1.076;2023-04-24T05:33:33;1.97;;;1.87;;
58567;SDS011;44354;46.192;-1.076;2023-04-24T05:35:59;2.00;;;1.90;;
58567;SDS011;44354;46.192;-1.076;2023-04-24T05:38:25;2.40;;;2.30;;
58567;SDS011;44354;46.192;-1.076;2023-04-24T05:40:51;2.20;;;2.10;;
58567;SDS011;44354;46.192;-1.076;2023-04-24T05:43:16;1.70;;;1.70;;
58567;SDS011;44354;46.192;-1.076;2023-04-24T05:45:42;2.10;;;2.00;;
58567;SDS011;44354;46.192;-1.076;2023-04-24T05:48:07;1.60;;;1.60;;
58567;SDS011;44354;46.192;-1.076;2023-04-24T05:50:33;1.70;;;1.70;;
58567;SDS011;44354;46.192;-1.076;2023-04-24T05:52:59;1.50;;;1.50;;
58567;SDS011;44354;46.192;-1.076;2023-04-24T05:55:26;1.20;;;1.20;;
58567;SDS011;44354;46.192;-1.076;2023-04-24T05:57:52;1.30;;;1.30;;
58567;SDS011;44354;46.192;-1.076;2023-04-24T06:00:18;1.40;;;1.40;;
58567;SDS011;44354;46.192;-1.076;2023-04-24T06:02:45;1.50;;;1.50;;
58567;SDS011;44354;46.192;-1.076;2023-04-24T06:05:11;1.10;;;1.10;;
58567;SDS011;44354;46.192;-1.076;2023-04-24T06:07:37;1.00;;;1.00;;
58567;SDS011;44354;46.192;-1.076;2023-04-24T06:10:02;1.10;;;1.10;;
58567;SDS011;44354;46.192;-1.076;2023-04-24T06:12:28;1.33;;;1.33;;
58567;SDS011;44354;46.192;-1.076;2023-04-24T06:14:54;1.33;;;1.33;;
58567;SDS011;44354;46.192;-1.076;2023-04-24T06:17:20;1.20;;;1.20;;
58567;SDS011;44354;46.192;-1.076;2023-04-24T06:19:46;1.10;;;1.10;;
58567;SDS011;44354;46.192;-1.076;2023-04-24T06:22:12;1.25;;;1.25;;
58567;SDS011;44354;46.192;-1.076;2023-04-24T06:24:39;1.60;;;1.60;;
58567;SDS011;44354;46.192;-1.076;2023-04-24T06:27:05;1.70;;;1.70;;
58567;SDS011;44354;46.192;-1.076;2023-04-24T06:29:31;1.47;;;1.47;;
58567;SDS011;44354;46.192;-1.076;2023-04-24T06:31:57;1.67;;;1.67;;
58567;SDS011;44354;46.192;-1.076;2023-04-24T06:34:23;1.20;;;1.20;;
58567;SDS011;44354;46.192;-1.076;2023-04-24T06:36:49;1.10;;;1.10;;
58567;SDS011;44354;46.192;-1.076;2023-04-24T06:39:14;1.20;;;1.20;;
58567;SDS011;44354;46.192;-1.076;2023-04-24T06:41:40;1.10;;;1.10;;
58567;SDS011;44354;46.192;-1.076;2023-04-24T06:44:06;1.00;;;1.00;;
58567;SDS011;44354;46.192;-1.076;2023-04-24T06:46:32;0.80;;;0.80;;
58567;SDS011;44354;46.192;-1.076;2023-04-24T06:48:57;0.90;;;0.90;;
58567;SDS011;44354;46.192;-1.076;2023-04-24T06:51:23;0.70;;;0.70;;
58567;SDS011;44354;46.192;-1.076;2023-04-24T06:53:49;0.70;;;0.70;;
58567;SDS011;44354;46.192;-1.076;2023-04-24T06:56:16;0.70;;;0.70;;
58567;SDS011;44354;46.192;-1.076;2023-04-24T06:58:41;0.70;;;0.70;;
58567;SDS011;44354;46.192;-1.076;2023-04-24T07:01:07;0.50;;;0.50;;
58567;SDS011;44354;46.192;-1.076;2023-04-24T07:03:33;0.40;;;0.40;;
58567;SDS011;44354;46.192;-1.076;2023-04-24T07:05:58;0.40;;;0.40;;
58567;SDS011;44354;46.192;-1.076;2023-04-24T07:08:24;0.35;;;0.35;;
58567;SDS011;44354;46.192;-1.076;2023-04-24T07:10:50;0.50;;;0.50;;
58567;SDS011;44354;46.192;-1.076;2023-04-24T07:13:16;0.45;;;0.45;;
58567;SDS011;44354;46.192;-1.076;2023-04-24T07:15:42;0.10;;;0.10;;
58567;SDS011;44354;46.192;-1.076;2023-04-24T07:18:08;0.10;;;0.10;;
58567;SDS011;44354;46.192;-1.076;2023-04-24T07:20:33;0.10;;;0.10;;
58567;SDS011;44354;46.192;-1.076;2023-04-24T07:22:59;0.30;;;0.30;;
58567;SDS011;44354;46.192;-1.076;2023-04-24T07:25:25;0.10;;;0.10;;
58567;SDS011;44354;46.192;-1.076;2023-04-24T07:27:51;0.15;;;0.15;;
58567;SDS011;44354;46.192;-1.076;2023-04-24T07:30:17;0.20;;;0.20;;
58567;SDS011;44354;46.192;-1.076;2023-04-24T07:32:42;0.10;;;0.10;;
58567;SDS011;44354;46.192;-1.076;2023-04-24T07:35:08;0.15;;;0.15;;
58567;SDS011;44354;46.192;-1.076;2023-04-24T07:37:34;0.30;;;0.30;;
58567;SDS011;44354;46.192;-1.076;2023-04-24T07:40:01;0.40;;;0.40;;
58567;SDS011;44354;46.192;-1.076;2023-04-24T07:42:27;0.30;;;0.30;;
58567;SDS011;44354;46.192;-1.076;2023-04-24T07:44:53;0.20;;;0.20;;
58567;SDS011;44354;46.192;-1.076;2023-04-24T07:47:18;0.20;;;0.20;;
58567;SDS011;44354;46.192;-1.076;2023-04-24T07:49:44;0.15;;;0.15;;
58567;SDS011;44354;46.192;-1.076;2023-04-24T07:52:10;0.30;;;0.30;;
58567;SDS011;44354;46.192;-1.076;2023-04-24T07:54:35;0.20;;;0.20;;
58567;SDS011;44354;46.192;-1.076;2023-04-24T07:57:02;0.20;;;0.20;;
58567;SDS011;44354;46.192;-1.076;2023-04-24T07:59:28;0.10;;;0.10;;
58567;SDS011;44354;46.192;-1.076;2023-04-24T08:01:53;0.10;;;0.10;;
58567;SDS011;44354;46.192;-1.076;2023-04-24T08:04:19;0.20;;;0.20;;
58567;SDS011;44354;46.192;-1.076;2023-04-24T08:06:46;0.00;;;0.00;;
58567;SDS011;44354;46.192;-1.076;2023-04-24T08:09:12;0.10;;;0.10;;
58567;SDS011;44354;46.192;-1.076;2023-04-24T08:11:38;0.20;;;0.20;;
58567;SDS011;44354;46.192;-1.076;2023-04-24T08:14:03;0.20;;;0.20;;
58567;SDS011;44354;46.192;-1.076;2023-04-24T08:16:29;0.00;;;0.00;;
58567;SDS011;44354;46.192;-1.076;2023-04-24T08:18:55;0.03;;;0.03;;
58567;SDS011;44354;46.192;-1.076;2023-04-24T08:21:21;0.10;;;0.10;;
58567;SDS011;44354;46.192;-1.076;2023-04-24T08:23:46;0.00;;;0.00;;
58567;SDS011;44354;46.192;-1.076;2023-04-24T08:26:12;0.10;;;0.10;;
58567;SDS011;44354;46.192;-1.076;2023-04-24T08:28:38;0.10;;;0.10;;
58567;SDS011;44354;46.192;-1.076;2023-04-24T08:31:04;0.10;;;0.10;;
58567;SDS011;44354;46.192;-1.076;2023-04-24T08:33:30;0.10;;;0.10;;
58567;SDS011;44354;46.192;-1.076;2023-04-24T08:36:02;0.15;;;0.15;;
58567;SDS011;44354;46.192;-1.076;2023-04-24T08:38:28;0.20;;;0.20;;
58567;SDS011;44354;46.192;-1.076;2023-04-24T08:40:54;0.20;;;0.20;;
58567;SDS011;44354;46.192;-1.076;2023-04-24T08:43:21;0.20;;;0.20;;
58567;SDS011;44354;46.192;-1.076;2023-04-24T08:45:48;0.10;;;0.10;;
58567;SDS011;44354;46.192;-1.076;2023-04-24T08:48:14;0.10;;;0.10;;
58567;SDS011;44354;46.192;-1.076;2023-04-24T08:50:40;0.10;;;0.10;;
58567;SDS011;44354;46.192;-1.076;2023-04-24T08:53:08;0.10;;;0.10;;
58567;SDS011;44354;46.192;-1.076;2023-04-24T08:55:33;0.10;;;0.10;;
58567;SDS011;44354;46.192;-1.076;2023-04-24T08:58:00;0.20;;;0.20;;
58567;SDS011;44354;46.192;-1.076;2023-04-24T09:00:27;0.30;;;0.30;;
58567;SDS011;44354;46.192;-1.076;2023-04-24T09:02:53;0.30;;;0.30;;
58567;SDS011;44354;46.192;-1.076;2023-04-24T09:05:20;0.30;;;0.30;;
58567;SDS011;44354;46.192;-1.076;2023-04-24T09:07:49;0.40;;;0.40;;
58567;SDS011;44354;46.192;-1.076;2023-04-24T09:10:20;0.30;;;0.30;;
58567;SDS011;44354;46.192;-1.076;2023-04-24T09:12:47;0.50;;;0.50;;
58567;SDS011;44354;46.192;-1.076;2023-04-24T09:15:14;0.38;;;0.38;;
58567;SDS011;44354;46.192;-1.076;2023-04-24T09:17:40;0.50;;;0.50;;
58567;SDS011;44354;46.192;-1.076;2023-04-24T09:20:06;0.30;;;0.30;;
58567;SDS011;44354;46.192;-1.076;2023-04-24T09:22:32;0.40;;;0.40;;
58567;SDS011;44354;46.192;-1.076;2023-04-24T09:25:16;0.63;;;0.63;;
58567;SDS011;44354;46.192;-1.076;2023-04-24T09:27:43;0.57;;;0.57;;
58567;SDS011;44354;46.192;-1.076;2023-04-24T09:30:10;0.60;;;0.60;;
58567;SDS011;44354;46.192;-1.076;2023-04-24T09:32:36;0.63;;;0.63;;
58567;SDS011;44354;46.192;-1.076;2023-04-24T09:35:06;0.30;;;0.30;;
58567;SDS011;44354;46.192;-1.076;2023-04-24T09:37:37;0.40;;;0.40;;
58567;SDS011;44354;46.192;-1.076;2023-04-24T09:40:22;0.20;;;0.20;;
58567;SDS011;44354;46.192;-1.076;2023-04-24T09:42:55;0.10;;;0.10;;
58567;SDS011;44354;46.192;-1.076;2023-04-24T09:45:22;0.00;;;0.00;;
58567;SDS011;44354;46.192;-1.076;2023-04-24T09:47:52;0.10;;;0.10;;
58567;SDS011;44354;46.192;-1.076;2023-04-24T09:50:21;0.00;;;0.00;;
58567;SDS011;44354;46.192;-1.076;2023-04-24T09:52:55;0.00;;;0.00;;
58567;SDS011;44354;46.192;-1.076;2023-04-24T09:55:22;0.00;;;0.00;;
58567;SDS011;44354;46.192;-1.076;2023-04-24T10:00:18;0.00;;;0.00;;
58567;SDS011;44354;46.192;-1.076;2023-04-24T10:02:53;0.00;;;0.00;;
58567;SDS011;44354;46.192;-1.076;2023-04-24T10:05:22;0.00;;;0.00;;
58567;SDS011;44354;46.192;-1.076;2023-04-24T10:07:49;0.00;;;0.00;;
58567;SDS011;44354;46.192;-1.076;2023-04-24T10:10:15;0.00;;;0.00;;
58567;SDS011;44354;46.192;-1.076;2023-04-24T10:12:41;0.00;;;0.00;;
58567;SDS011;44354;46.192;-1.076;2023-04-24T10:15:09;0.00;;;0.00;;
58567;SDS011;44354;46.192;-1.076;2023-04-24T10:17:37;0.00;;;0.00;;
58567;SDS011;44354;46.192;-1.076;2023-04-24T10:20:04;0.00;;;0.00;;
58567;SDS011;44354;46.192;-1.076;2023-04-24T10:22:32;0.00;;;0.00;;
58567;SDS011;44354;46.192;-1.076;2023-04-24T10:24:57;0.00;;;0.00;;
58567;SDS011;44354;46.192;-1.076;2023-04-24T10:27:24;0.00;;;0.00;;
58567;SDS011;44354;46.192;-1.076;2023-04-24T10:29:52;0.00;;;0.00;;
58567;SDS011;44354;46.192;-1.076;2023-04-24T10:32:18;0.00;;;0.00;;
58567;SDS011;44354;46.192;-1.076;2023-04-24T10:34:44;0.00;;;0.00;;
58567;SDS011;44354;46.192;-1.076;2023-04-24T10:37:10;0.00;;;0.00;;
58567;SDS011;44354;46.192;-1.076;2023-04-24T10:39:36;0.00;;;0.00;;
58567;SDS011;44354;46.192;-1.076;2023-04-24T10:42:13;0.00;;;0.00;;
58567;SDS011;44354;46.192;-1.076;2023-04-24T10:44:42;0.00;;;0.00;;
58567;SDS011;44354;46.192;-1.076;2023-04-24T10:47:14;0.00;;;0.00;;
58567;SDS011;44354;46.192;-1.076;2023-04-24T10:49:39;0.00;;;0.00;;
58567;SDS011;44354;46.192;-1.076;2023-04-24T10:52:05;0.00;;;0.00;;
58567;SDS011;44354;46.192;-1.076;2023-04-24T10:59:43;0.00;;;0.00;;
58567;SDS011;44354;46.192;-1.076;2023-04-24T11:02:09;0.00;;;0.00;;
58567;SDS011;44354;46.192;-1.076;2023-04-24T11:04:35;0.00;;;0.00;;
58567;SDS011;44354;46.192;-1.076;2023-04-24T11:07:02;0.00;;;0.00;;
58567;SDS011;44354;46.192;-1.076;2023-04-24T11:09:32;0.00;;;0.00;;
58567;SDS011;44354;46.192;-1.076;2023-04-24T11:12:04;0.00;;;0.00;;
58567;SDS011;44354;46.192;-1.076;2023-04-24T11:17:31;0.00;;;0.00;;
58567;SDS011;44354;46.192;-1.076;2023-04-24T11:20:09;0.00;;;0.00;;
58567;SDS011;44354;46.192;-1.076;2023-04-24T11:22:36;0.00;;;0.00;;
58567;SDS011;44354;46.192;-1.076;2023-04-24T11:25:05;0.00;;;0.00;;
58567;SDS011;44354;46.192;-1.076;2023-04-24T11:27:41;0.00;;;0.00;;
58567;SDS011;44354;46.192;-1.076;2023-04-24T11:30:08;0.00;;;0.00;;
58567;SDS011;44354;46.192;-1.076;2023-04-24T11:35:03;0.00;;;0.00;;
58567;SDS011;44354;46.192;-1.076;2023-04-24T11:37:40;0.00;;;0.00;;
58567;SDS011;44354;46.192;-1.076;2023-04-24T11:40:08;0.00;;;0.00;;
58567;SDS011;44354;46.192;-1.076;2023-04-24T11:42:38;0.00;;;0.00;;
58567;SDS011;44354;46.192;-1.076;2023-04-24T11:45:09;0.00;;;0.00;;
58567;SDS011;44354;46.192;-1.076;2023-04-24T11:47:39;0.00;;;0.00;;
58567;SDS011;44354;46.192;-1.076;2023-04-24T11:50:07;0.00;;;0.00;;
58567;SDS011;44354;46.192;-1.076;2023-04-24T11:52:37;0.00;;;0.00;;
58567;SDS011;44354;46.192;-1.076;2023-04-24T11:55:06;0.00;;;0.00;;
58567;SDS011;44354;46.192;-1.076;2023-04-24T11:57:33;0.00;;;0.00;;
58567;SDS011;44354;46.192;-1.076;2023-04-24T12:00:01;0.00;;;0.00;;
58567;SDS011;44354;46.192;-1.076;2023-04-24T12:02:28;0.00;;;0.00;;
58567;SDS011;44354;46.192;-1.076;2023-04-24T12:04:54;0.00;;;0.00;;
58567;SDS011;44354;46.192;-1.076;2023-04-24T12:07:21;0.00;;;0.00;;
58567;SDS011;44354;46.192;-1.076;2023-04-24T12:09:48;0.00;;;0.00;;
58567;SDS011;44354;46.192;-1.076;2023-04-24T12:12:15;0.00;;;0.00;;
58567;SDS011;44354;46.192;-1.076;2023-04-24T12:14:43;0.00;;;0.00;;
58567;SDS011;44354;46.192;-1.076;2023-04-24T12:17:13;0.00;;;0.00;;
58567;SDS011;44354;46.192;-1.076;2023-04-24T12:19:44;0.00;;;0.00;;
58567;SDS011;44354;46.192;-1.076;2023-04-24T12:22:13;0.00;;;0.00;;
58567;SDS011;44354;46.192;-1.076;2023-04-24T12:24:58;0.00;;;0.00;;
58567;SDS011;44354;46.192;-1.076;2023-04-24T12:27:25;0.00;;;0.00;;
58567;SDS011;44354;46.192;-1.076;2023-04-24T12:29:55;0.00;;;0.00;;
58567;SDS011;44354;46.192;-1.076;2023-04-24T12:32:22;0.00;;;0.00;;
58567;SDS011;44354;46.192;-1.076;2023-04-24T12:34:49;0.00;;;0.00;;
58567;SDS011;44354;46.192;-1.076;2023-04-24T12:37:16;0.00;;;0.00;;
58567;SDS011;44354;46.192;-1.076;2023-04-24T12:42:33;0.00;;;0.00;;
58567;SDS011;44354;46.192;-1.076;2023-04-24T12:45:05;0.00;;;0.00;;
58567;SDS011;44354;46.192;-1.076;2023-04-24T12:47:32;0.00;;;0.00;;
58567;SDS011;44354;46.192;-1.076;2023-04-24T12:49:58;0.00;;;0.00;;
58567;SDS011;44354;46.192;-1.076;2023-04-24T12:52:25;0.00;;;0.00;;
58567;SDS011;44354;46.192;-1.076;2023-04-24T12:54:58;0.00;;;0.00;;
58567;SDS011;44354;46.192;-1.076;2023-04-24T12:57:34;0.00;;;0.00;;
58567;SDS011;44354;46.192;-1.076;2023-04-24T13:00:00;0.00;;;0.00;;
58567;SDS011;44354;46.192;-1.076;2023-04-24T13:02:28;0.00;;;0.00;;
58567;SDS011;44354;46.192;-1.076;2023-04-24T13:04:55;0.00;;;0.00;;
58567;SDS011;44354;46.192;-1.076;2023-04-24T13:07:22;0.00;;;0.00;;
58567;SDS011;44354;46.192;-1.076;2023-04-24T13:09:48;0.00;;;0.00;;
58567;SDS011;44354;46.192;-1.076;2023-04-24T13:12:15;0.00;;;0.00;;
58567;SDS011;44354;46.192;-1.076;2023-04-24T13:14:40;0.00;;;0.00;;
58567;SDS011;44354;46.192;-1.076;2023-04-24T13:17:06;0.00;;;0.00;;
58567;SDS011;44354;46.192;-1.076;2023-04-24T13:19:39;0.00;;;0.00;;
58567;SDS011;44354;46.192;-1.076;2023-04-24T13:22:06;0.00;;;0.00;;
58567;SDS011;44354;46.192;-1.076;2023-04-24T13:24:32;0.00;;;0.00;;
58567;SDS011;44354;46.192;-1.076;2023-04-24T13:26:58;0.00;;;0.00;;
58567;SDS011;44354;46.192;-1.076;2023-04-24T13:29:25;0.00;;;0.00;;
58567;SDS011;44354;46.192;-1.076;2023-04-24T13:31:52;0.00;;;0.00;;
58567;SDS011;44354;46.192;-1.076;2023-04-24T13:34:25;0.00;;;0.00;;
58567;SDS011;44354;46.192;-1.076;2023-04-24T13:36:52;0.00;;;0.00;;
58567;SDS011;44354;46.192;-1.076;2023-04-24T13:39:19;0.00;;;0.00;;
58567;SDS011;44354;46.192;-1.076;2023-04-24T13:41:45;0.00;;;0.00;;
58567;SDS011;44354;46.192;-1.076;2023-04-24T13:44:13;0.00;;;0.00;;
58567;SDS011;44354;46.192;-1.076;2023-04-24T13:46:43;0.00;;;0.00;;
58567;SDS011;44354;46.192;-1.076;2023-04-24T13:49:11;0.00;;;0.00;;
58567;SDS011;44354;46.192;-1.076;2023-04-24T13:51:37;0.00;;;0.00;;
58567;SDS011;44354;46.192;-1.076;2023-04-24T13:54:04;0.10;;;0.10;;
58567;SDS011;44354;46.192;-1.076;2023-04-24T13:56:29;0.00;;;0.00;;
58567;SDS011;44354;46.192;-1.076;2023-04-24T13:58:55;0.00;;;0.00;;
58567;SDS011;44354;46.192;-1.076;2023-04-24T14:01:21;0.00;;;0.00;;
58567;SDS011;44354;46.192;-1.076;2023-04-24T14:04:08;0.00;;;0.00;;
58567;SDS011;44354;46.192;-1.076;2023-04-24T14:06:34;0.00;;;0.00;;
58567;SDS011;44354;46.192;-1.076;2023-04-24T14:08:59;0.00;;;0.00;;
58567;SDS011;44354;46.192;-1.076;2023-04-24T14:11:25;0.00;;;0.00;;
58567;SDS011;44354;46.192;-1.076;2023-04-24T14:13:51;0.00;;;0.00;;
58567;SDS011;44354;46.192;-1.076;2023-04-24T14:16:18;0.00;;;0.00;;
58567;SDS011;44354;46.192;-1.076;2023-04-24T14:18:44;0.00;;;0.00;;
58567;SDS011;44354;46.192;-1.076;2023-04-24T14:21:09;0.00;;;0.00;;
58567;SDS011;44354;46.192;-1.076;2023-04-24T14:23:35;0.00;;;0.00;;
58567;SDS011;44354;46.192;-1.076;2023-04-24T14:26:01;0.00;;;0.00;;
58567;SDS011;44354;46.192;-1.076;2023-04-24T14:28:27;0.00;;;0.00;;
58567;SDS011;44354;46.192;-1.076;2023-04-24T14:30:53;0.00;;;0.00;;
58567;SDS011;44354;46.192;-1.076;2023-04-24T14:33:19;0.00;;;0.00;;
58567;SDS011;44354;46.192;-1.076;2023-04-24T14:35:45;0.00;;;0.00;;
58567;SDS011;44354;46.192;-1.076;2023-04-24T14:38:11;0.00;;;0.00;;
58567;SDS011;44354;46.192;-1.076;2023-04-24T14:40:37;0.00;;;0.00;;
58567;SDS011;44354;46.192;-1.076;2023-04-24T14:43:02;0.00;;;0.00;;
58567;SDS011;44354;46.192;-1.076;2023-04-24T14:45:28;0.00;;;0.00;;
58567;SDS011;44354;46.192;-1.076;2023-04-24T14:47:54;0.00;;;0.00;;